createdAt,value
2019-03-13T00:00:29.776Z,83.69
2019-03-13T00:01:29.768Z,83.69
2019-03-13T00:02:29.755Z,83.09
2019-03-13T00:03:29.840Z,89.50
2019-03-13T00:04:29.736Z,90.00
2019-03-13T00:05:29.719Z,104.59
2019-03-13T00:06:29.710Z,107.50
2019-03-13T00:07:29.703Z,90.59
2019-03-13T00:08:29.689Z,108.19
2019-03-13T00:09:29.828Z,105.19
2019-03-13T00:10:32.370Z,94.19
2019-03-13T00:11:29.660Z,86.59
2019-03-13T00:12:29.654Z,85.90
2019-03-13T00:13:29.638Z,86.19
2019-03-13T00:14:29.626Z,89.90
2019-03-13T00:15:29.720Z,56.00
2019-03-13T00:16:29.608Z,69.19
2019-03-13T00:17:29.593Z,81.09
2019-03-13T00:18:29.583Z,78.09
2019-03-13T00:19:29.570Z,74.00
2019-03-13T00:20:29.593Z,69.80
2019-03-13T00:21:29.649Z,75.90
2019-03-13T00:22:29.539Z,71.00
2019-03-13T00:23:29.526Z,111.30
2019-03-13T00:24:29.518Z,111.00
2019-03-13T00:25:29.509Z,110.50
2019-03-13T00:26:29.498Z,115.09
2019-03-13T00:27:29.640Z,106.40
2019-03-13T00:28:29.476Z,111.90
2019-03-13T00:29:29.467Z,114.80
2019-03-13T00:30:29.454Z,118.00
2019-03-13T00:31:29.453Z,124.19
2019-03-13T00:32:29.437Z,90.69
2019-03-13T00:33:29.528Z,53.70
2019-03-13T00:34:29.416Z,84.59
2019-03-13T00:35:29.405Z,60.20
2019-03-13T00:36:29.392Z,63.50
2019-03-13T00:37:29.379Z,39.40
2019-03-13T00:38:29.394Z,32.70
2019-03-13T00:39:29.408Z,27.89
2019-03-13T00:40:29.347Z,38.09
2019-03-13T00:41:29.340Z,52.50
2019-03-13T00:42:29.325Z,93.00
2019-03-13T00:43:29.314Z,93.59
2019-03-13T00:44:29.455Z,98.19
2019-03-13T00:45:29.297Z,69.40
2019-03-13T00:46:29.297Z,39.70
2019-03-13T00:47:29.275Z,20.50
2019-03-13T00:48:29.268Z,47.59
2019-03-13T00:49:29.252Z,42.00
2019-03-13T00:50:29.346Z,31.50
2019-03-13T00:51:29.230Z,29.00
2019-03-13T00:52:29.229Z,41.00
2019-03-13T00:53:29.215Z,24.39
2019-03-13T00:54:29.199Z,29.60
2019-03-13T00:55:29.186Z,34.20
2019-03-13T00:56:29.319Z,41.20
2019-03-13T00:57:29.170Z,46.70
2019-03-13T00:58:29.163Z,52.90
2019-03-13T00:59:29.148Z,39.20
2019-03-13T01:00:29.137Z,44.50
2019-03-13T01:01:29.230Z,57.70
2019-03-13T01:02:29.114Z,53.40
2019-03-13T01:03:29.108Z,47.50
2019-03-13T01:04:29.093Z,68.59
2019-03-13T01:05:29.083Z,58.70
2019-03-13T01:06:29.226Z,54.09
2019-03-13T01:07:29.062Z,54.59
2019-03-13T01:08:29.050Z,54.59
2019-03-13T01:09:29.042Z,44.40
2019-03-13T01:10:29.036Z,39.79
2019-03-13T01:11:29.021Z,30.89
2019-03-13T01:12:29.110Z,23.29
2019-03-13T01:13:28.997Z,28.89
2019-03-13T01:14:28.988Z,32.20
2019-03-13T01:15:28.977Z,47.20
2019-03-13T01:16:28.965Z,41.50
2019-03-13T01:17:28.956Z,30.20
2019-03-13T01:18:28.999Z,25.29
2019-03-13T01:19:28.936Z,35.90
2019-03-13T01:20:28.929Z,32.40
2019-03-13T01:21:28.914Z,74.40
2019-03-13T01:22:28.899Z,76.19
2019-03-13T01:23:28.905Z,88.69
2019-03-13T01:24:29.035Z,75.19
2019-03-13T01:25:28.871Z,95.40
2019-03-13T01:26:28.875Z,88.90
2019-03-13T01:27:28.852Z,93.90
2019-03-13T01:28:28.844Z,90.00
2019-03-13T01:29:28.830Z,96.59
2019-03-13T01:30:28.872Z,91.90
2019-03-13T01:31:28.806Z,89.50
2019-03-13T01:32:28.795Z,94.50
2019-03-13T01:33:28.787Z,87.30
2019-03-13T01:34:28.776Z,102.80
2019-03-13T01:35:28.771Z,108.00
2019-03-13T01:36:28.854Z,87.50
2019-03-13T01:37:28.746Z,79.50
2019-03-13T01:38:28.732Z,67.50
2019-03-13T01:39:28.722Z,101.00
2019-03-13T01:40:28.717Z,79.80
2019-03-13T01:41:28.700Z,42.59
2019-03-13T01:42:28.942Z,63.09
2019-03-13T01:43:28.683Z,92.30
2019-03-13T01:44:28.668Z,100.00
2019-03-13T01:45:28.656Z,79.00
2019-03-13T01:46:28.649Z,108.19
2019-03-13T01:47:28.637Z,97.50
2019-03-13T01:48:28.726Z,105.90
2019-03-13T01:49:28.619Z,106.09
2019-03-13T01:50:28.610Z,109.59
2019-03-13T01:51:28.594Z,100.50
2019-03-13T01:52:28.585Z,109.69
2019-03-13T01:53:28.576Z,122.30
2019-03-13T01:54:28.611Z,110.09
2019-03-13T01:55:28.551Z,103.30
2019-03-13T01:56:28.539Z,104.00
2019-03-13T01:57:28.531Z,94.00
2019-03-13T01:58:28.519Z,54.79
2019-03-13T01:59:28.509Z,55.09
2019-03-13T02:00:28.703Z,47.00
2019-03-13T02:01:28.491Z,48.70
2019-03-13T02:02:28.476Z,41.29
2019-03-13T02:03:28.467Z,76.59
2019-03-13T02:04:28.456Z,96.09
2019-03-13T02:05:28.441Z,84.00
2019-03-13T02:06:28.538Z,105.59
2019-03-13T02:07:28.422Z,84.50
2019-03-13T02:08:28.412Z,56.29
2019-03-13T02:09:28.402Z,81.19
2019-03-13T02:10:28.393Z,106.00
2019-03-13T02:11:28.378Z,81.90
2019-03-13T02:12:28.419Z,79.09
2019-03-13T02:13:28.360Z,64.80
2019-03-13T02:14:28.355Z,92.59
2019-03-13T02:15:28.336Z,105.00
2019-03-13T02:16:28.328Z,89.90
2019-03-13T02:17:28.315Z,67.40
2019-03-13T02:18:28.454Z,49.00
2019-03-13T02:19:28.293Z,57.70
2019-03-13T02:20:28.286Z,75.80
2019-03-13T02:21:28.272Z,83.59
2019-03-13T02:22:28.258Z,59.50
2019-03-13T02:23:28.251Z,53.00
2019-03-13T02:24:28.339Z,57.90
2019-03-13T02:25:28.228Z,54.09
2019-03-13T02:26:28.222Z,32.59
2019-03-13T02:27:28.209Z,47.00
2019-03-13T02:28:28.200Z,76.69
2019-03-13T02:29:28.187Z,84.00
2019-03-13T02:30:28.284Z,87.40
2019-03-13T02:31:28.166Z,89.50
2019-03-13T02:32:28.156Z,72.09
2019-03-13T02:33:28.145Z,68.30
2019-03-13T02:34:28.145Z,58.50
2019-03-13T02:35:28.133Z,72.19
2019-03-13T02:36:28.268Z,62.29
2019-03-13T02:37:28.106Z,57.59
2019-03-13T02:38:28.099Z,59.29
2019-03-13T02:39:28.085Z,66.09
2019-03-13T02:40:28.073Z,76.59
2019-03-13T02:41:28.115Z,69.90
2019-03-13T02:42:28.051Z,81.50
2019-03-13T02:43:28.040Z,82.69
2019-03-13T02:44:28.032Z,83.90
2019-03-13T02:45:28.024Z,79.30
2019-03-13T02:46:28.113Z,83.50
2019-03-13T02:47:27.998Z,82.59
2019-03-13T02:48:27.990Z,82.80
2019-03-13T02:49:27.990Z,79.00
2019-03-13T02:50:27.967Z,81.80
2019-03-13T02:51:27.955Z,102.09
2019-03-13T02:52:28.099Z,81.00
2019-03-13T02:53:27.946Z,87.69
2019-03-13T02:54:27.926Z,87.09
2019-03-13T02:55:27.910Z,80.69
2019-03-13T02:56:27.902Z,85.69
2019-03-13T02:57:27.944Z,100.19
2019-03-13T02:58:27.884Z,98.30
2019-03-13T02:59:27.870Z,97.90
2019-03-13T03:00:27.859Z,120.30
2019-03-13T03:01:27.853Z,103.40
2019-03-13T03:02:27.849Z,110.19
2019-03-13T03:03:27.880Z,94.80
2019-03-13T03:04:27.814Z,101.00
2019-03-13T03:05:27.810Z,95.80
2019-03-13T03:06:27.808Z,93.40
2019-03-13T03:07:27.789Z,107.59
2019-03-13T03:08:27.775Z,102.00
2019-03-13T03:09:27.868Z,114.40
2019-03-13T03:10:27.756Z,111.30
2019-03-13T03:11:27.742Z,106.19
2019-03-13T03:12:27.733Z,110.59
2019-03-13T03:13:27.726Z,90.69
2019-03-13T03:14:27.965Z,93.90
2019-03-13T03:15:27.702Z,107.40
2019-03-13T03:16:27.692Z,96.80
2019-03-13T03:17:27.687Z,126.59
2019-03-13T03:18:27.674Z,104.90
2019-03-13T03:19:27.662Z,116.09
2019-03-13T03:20:27.738Z,134.80
2019-03-13T03:21:27.668Z,116.19
2019-03-13T03:22:27.630Z,108.80
2019-03-13T03:23:27.620Z,103.80
2019-03-13T03:24:27.606Z,112.59
2019-03-13T03:25:27.600Z,113.50
2019-03-13T03:26:27.688Z,104.50
2019-03-13T03:27:27.578Z,121.90
2019-03-13T03:28:27.556Z,107.19
2019-03-13T03:29:27.543Z,99.90
2019-03-13T03:30:27.537Z,109.09
2019-03-13T03:31:27.531Z,119.09
2019-03-13T03:32:27.668Z,114.19
2019-03-13T03:33:27.508Z,103.80
2019-03-13T03:34:27.508Z,101.69
2019-03-13T03:35:27.482Z,116.80
2019-03-13T03:36:27.471Z,106.69
2019-03-13T03:37:27.463Z,92.90
2019-03-13T03:38:27.500Z,99.30
2019-03-13T03:39:27.442Z,93.50
2019-03-13T03:40:27.430Z,105.30
2019-03-13T03:41:27.416Z,86.69
2019-03-13T03:42:27.408Z,86.69
2019-03-13T03:43:39.426Z,100.40
2019-03-13T03:44:52.247Z,80.69
2019-03-13T03:45:52.238Z,94.80
2019-03-13T03:46:52.281Z,86.40
2019-03-13T03:47:52.318Z,95.40
2019-03-13T03:48:52.297Z,83.90
2019-03-13T03:49:52.396Z,98.90
2019-03-13T03:50:52.189Z,87.40
2019-03-13T03:51:52.177Z,84.30
2019-03-13T03:52:52.171Z,75.59
2019-03-13T03:53:52.224Z,64.19
2019-03-13T03:54:52.142Z,65.19
2019-03-13T03:55:52.183Z,59.00
2019-03-13T03:56:52.127Z,72.69
2019-03-13T03:57:52.113Z,57.79
2019-03-13T03:58:52.113Z,55.40
2019-03-13T03:59:52.097Z,54.50
2019-03-13T04:00:52.082Z,68.90
2019-03-13T04:01:52.179Z,67.30
2019-03-13T04:02:52.064Z,56.40
2019-03-13T04:03:52.052Z,61.70
2019-03-13T04:04:52.039Z,63.09
2019-03-13T04:05:52.033Z,55.90
2019-03-13T04:06:52.018Z,61.40
2019-03-13T04:07:52.419Z,59.59
2019-03-13T04:08:52.003Z,53.90
2019-03-13T04:09:51.994Z,60.00
2019-03-13T04:10:51.981Z,52.90
2019-03-13T04:11:51.969Z,62.70
2019-03-13T04:12:51.962Z,58.70
2019-03-13T04:13:52.001Z,53.59
2019-03-13T04:14:51.940Z,51.59
2019-03-13T04:15:51.928Z,62.09
2019-03-13T04:16:51.922Z,53.59
2019-03-13T04:17:51.923Z,64.80
2019-03-13T04:18:52.004Z,51.50
2019-03-13T04:19:51.899Z,55.20
2019-03-13T04:20:51.887Z,48.00
2019-03-13T04:21:51.868Z,47.79
2019-03-13T04:22:51.886Z,43.70
2019-03-13T04:23:51.852Z,46.29
2019-03-13T04:24:51.953Z,39.09
2019-03-13T04:25:51.832Z,42.70
2019-03-13T04:26:51.815Z,43.59
2019-03-13T04:27:51.807Z,39.50
2019-03-13T04:28:51.799Z,50.00
2019-03-13T04:29:51.935Z,34.90
2019-03-13T04:30:51.775Z,34.50
2019-03-13T04:31:51.765Z,35.09
2019-03-13T04:32:51.763Z,30.00
2019-03-13T04:33:51.754Z,25.00
2019-03-13T04:34:51.737Z,23.10
2019-03-13T04:35:51.826Z,25.29
2019-03-13T04:36:51.715Z,36.09
2019-03-13T04:37:51.705Z,33.40
2019-03-13T04:38:51.725Z,26.79
2019-03-13T04:39:51.683Z,34.09
2019-03-13T04:40:51.671Z,25.20
2019-03-13T04:41:51.720Z,20.60
2019-03-13T04:42:51.691Z,53.59
2019-03-13T04:43:51.645Z,35.79
2019-03-13T04:44:51.633Z,31.10
2019-03-13T04:45:51.623Z,47.59
2019-03-13T04:46:51.861Z,26.60
2019-03-13T04:47:51.600Z,25.50
2019-03-13T04:48:51.592Z,24.89
2019-03-13T04:49:51.579Z,30.00
2019-03-13T04:50:51.570Z,28.00
2019-03-13T04:51:51.562Z,28.20
2019-03-13T04:52:51.603Z,29.00
2019-03-13T04:53:51.540Z,28.50
2019-03-13T04:54:51.530Z,24.50
2019-03-13T04:55:52.728Z,25.60
2019-03-13T04:56:51.513Z,28.60
2019-03-13T04:57:51.753Z,29.20
2019-03-13T04:58:51.490Z,35.20
2019-03-13T04:59:51.478Z,34.09
2019-03-13T05:00:51.465Z,44.09
2019-03-13T05:01:51.462Z,37.40
2019-03-13T05:02:51.447Z,40.00
2019-03-13T05:03:51.488Z,54.09
2019-03-13T05:04:51.438Z,52.70
2019-03-13T05:05:51.419Z,47.20
2019-03-13T05:06:51.420Z,58.59
2019-03-13T05:07:51.398Z,45.50
2019-03-13T05:08:51.437Z,38.70
2019-03-13T05:09:51.375Z,39.90
2019-03-13T05:10:51.367Z,34.09
2019-03-13T05:11:51.355Z,40.20
2019-03-13T05:12:51.391Z,35.50
2019-03-13T05:13:51.503Z,34.09
2019-03-13T05:14:51.323Z,42.70
2019-03-13T05:15:51.309Z,39.20
2019-03-13T05:16:51.305Z,36.09
2019-03-13T05:17:51.295Z,41.70
2019-03-13T05:18:51.286Z,38.70
2019-03-13T05:19:51.330Z,44.59
2019-03-13T05:20:51.260Z,42.70
2019-03-13T05:21:51.255Z,39.20
2019-03-13T05:22:51.239Z,44.59
2019-03-13T05:23:51.230Z,43.20
2019-03-13T05:24:51.222Z,38.40
2019-03-13T05:25:51.261Z,53.50
2019-03-13T05:26:51.198Z,49.59
2019-03-13T05:27:51.185Z,44.50
2019-03-13T05:28:51.180Z,50.90
2019-03-13T05:29:51.165Z,46.40
2019-03-13T05:30:53.152Z,48.09
2019-03-13T05:31:51.196Z,45.29
2019-03-13T05:32:51.132Z,45.20
2019-03-13T05:33:51.129Z,44.50
2019-03-13T05:34:51.120Z,40.50
2019-03-13T05:35:51.104Z,43.40
2019-03-13T05:36:51.089Z,41.09
2019-03-13T05:37:51.181Z,41.59
2019-03-13T05:38:51.076Z,35.00
2019-03-13T05:39:51.058Z,37.50
2019-03-13T05:40:51.052Z,39.50
2019-03-13T05:41:51.038Z,40.40
2019-03-13T05:42:51.030Z,41.00
2019-03-13T05:43:51.166Z,36.50
2019-03-13T05:44:51.007Z,37.29
2019-03-13T05:45:50.999Z,39.09
2019-03-13T05:46:50.982Z,44.59
2019-03-13T05:47:50.974Z,44.59
2019-03-13T05:48:50.961Z,40.90
2019-03-13T05:49:51.007Z,42.20
2019-03-13T05:50:50.947Z,39.09
2019-03-13T05:51:50.932Z,37.40
2019-03-13T05:52:50.926Z,35.79
2019-03-13T05:53:50.916Z,35.09
2019-03-13T05:54:50.905Z,32.20
2019-03-13T05:55:51.008Z,35.90
2019-03-13T05:56:50.888Z,31.29
2019-03-13T05:57:50.873Z,35.59
2019-03-13T05:58:50.864Z,27.70
2019-03-13T05:59:50.854Z,30.39
2019-03-13T06:00:50.840Z,34.09
2019-03-13T06:01:51.029Z,32.79
2019-03-13T06:02:50.820Z,32.09
2019-03-13T06:03:50.816Z,31.70
2019-03-13T06:04:50.799Z,24.79
2019-03-13T06:05:50.789Z,34.09
2019-03-13T06:06:50.792Z,29.60
2019-03-13T06:07:50.824Z,27.89
2019-03-13T06:08:50.761Z,26.89
2019-03-13T06:09:50.763Z,33.09
2019-03-13T06:10:50.735Z,30.29
2019-03-13T06:11:50.730Z,30.20
2019-03-13T06:12:50.718Z,27.29
2019-03-13T06:13:50.754Z,27.10
2019-03-13T06:14:50.696Z,34.90
2019-03-13T06:15:50.689Z,22.79
2019-03-13T06:16:50.703Z,25.70
2019-03-13T06:17:50.666Z,27.29
2019-03-13T06:18:52.890Z,32.59
2019-03-13T06:19:50.795Z,29.00
2019-03-13T06:20:50.635Z,32.90
2019-03-13T06:21:50.628Z,29.79
2019-03-13T06:22:50.612Z,22.60
2019-03-13T06:23:50.605Z,30.79
2019-03-13T06:24:50.595Z,24.70
2019-03-13T06:25:50.637Z,25.70
2019-03-13T06:26:50.574Z,27.60
2019-03-13T06:27:50.562Z,22.50
2019-03-13T06:28:50.555Z,27.79
2019-03-13T06:29:50.542Z,30.70
2019-03-13T06:30:50.533Z,29.39
2019-03-13T06:31:50.570Z,31.10
2019-03-13T06:32:50.512Z,25.89
2019-03-13T06:33:50.503Z,26.60
2019-03-13T06:34:50.492Z,26.79
2019-03-13T06:35:50.481Z,26.60
2019-03-13T06:36:50.488Z,29.89
2019-03-13T06:37:50.604Z,28.29
2019-03-13T06:38:50.446Z,28.10
2019-03-13T06:39:50.437Z,26.70
2019-03-13T06:40:50.425Z,30.70
2019-03-13T06:41:50.411Z,26.10
2019-03-13T06:42:50.421Z,23.39
2019-03-13T06:43:50.498Z,27.39
2019-03-13T06:44:50.389Z,32.29
2019-03-13T06:45:50.378Z,32.09
2019-03-13T06:46:50.364Z,26.70
2019-03-13T06:47:50.358Z,32.40
2019-03-13T06:48:50.346Z,27.00
2019-03-13T06:49:50.384Z,28.79
2019-03-13T06:50:50.318Z,30.79
2019-03-13T06:51:50.310Z,30.10
2019-03-13T06:52:50.305Z,27.50
2019-03-13T06:53:50.290Z,29.60
2019-03-13T06:54:50.278Z,28.50
2019-03-13T06:55:50.422Z,28.00
2019-03-13T06:56:50.258Z,31.89
2019-03-13T06:57:50.251Z,29.60
2019-03-13T06:58:50.301Z,30.60
2019-03-13T06:59:50.229Z,31.79
2019-03-13T07:00:50.221Z,25.79
2019-03-13T07:01:50.310Z,29.70
2019-03-13T07:02:50.200Z,30.29
2019-03-13T07:03:50.188Z,28.39
2019-03-13T07:04:50.181Z,25.20
2019-03-13T07:05:50.169Z,26.00
2019-03-13T07:06:50.158Z,27.50
2019-03-13T07:07:50.246Z,25.50
2019-03-13T07:08:50.133Z,25.50
2019-03-13T07:09:50.124Z,28.70
2019-03-13T07:10:50.117Z,36.50
2019-03-13T07:11:50.100Z,22.60
2019-03-13T07:12:50.094Z,26.20
2019-03-13T07:13:50.486Z,23.89
2019-03-13T07:14:50.070Z,27.79
2019-03-13T07:15:50.063Z,27.89
2019-03-13T07:16:50.054Z,24.39
2019-03-13T07:17:50.042Z,28.79
2019-03-13T07:18:50.037Z,28.10
2019-03-13T07:20:50.061Z,28.29
2019-03-13T07:21:50.004Z,25.39
2019-03-13T07:22:50.001Z,25.00
2019-03-13T07:23:49.983Z,21.79
2019-03-13T07:24:49.970Z,27.79
2019-03-13T07:25:49.960Z,27.10
2019-03-13T07:26:51.502Z,32.59
2019-03-13T07:27:49.941Z,24.10
2019-03-13T07:28:52.409Z,27.70
2019-03-13T07:29:49.922Z,24.60
2019-03-13T07:30:49.908Z,21.70
2019-03-13T07:31:49.897Z,25.79
2019-03-13T07:32:50.091Z,24.60
2019-03-13T07:33:49.875Z,25.50
2019-03-13T07:34:49.871Z,26.29
2019-03-13T07:35:49.856Z,24.50
2019-03-13T07:36:49.852Z,26.29
2019-03-13T07:37:49.831Z,26.10
2019-03-13T07:38:49.877Z,22.79
2019-03-13T07:39:49.814Z,21.79
2019-03-13T07:40:49.812Z,22.50
2019-03-13T07:41:49.805Z,23.50
2019-03-13T07:42:49.779Z,21.70
2019-03-13T07:43:49.773Z,25.50
2019-03-13T07:44:49.864Z,24.60
2019-03-13T07:45:49.754Z,22.79
2019-03-13T07:46:49.832Z,22.20
2019-03-13T07:47:49.730Z,24.79
2019-03-13T07:48:49.724Z,27.00
2019-03-13T07:49:49.713Z,24.79
2019-03-13T07:50:49.805Z,25.00
2019-03-13T07:51:49.688Z,26.70
2019-03-13T07:52:49.681Z,22.10
2019-03-13T07:53:49.670Z,18.79
2019-03-13T07:54:49.659Z,20.10
2019-03-13T07:55:49.647Z,19.20
2019-03-13T07:56:49.686Z,20.39
2019-03-13T07:57:49.627Z,21.10
2019-03-13T07:58:49.615Z,26.79
2019-03-13T07:59:49.606Z,23.70
2019-03-13T08:00:49.592Z,20.39
2019-03-13T08:01:49.735Z,30.10
2019-03-13T08:02:49.578Z,20.29
2019-03-13T08:03:49.561Z,21.39
2019-03-13T08:04:49.554Z,22.60
2019-03-13T08:05:49.543Z,18.29
2019-03-13T08:06:49.533Z,24.50
2019-03-13T08:07:49.571Z,20.79
2019-03-13T08:08:49.515Z,19.79
2019-03-13T08:09:49.505Z,19.20
2019-03-13T08:10:49.487Z,20.10
2019-03-13T08:11:49.479Z,20.79
2019-03-13T08:12:49.470Z,20.70
2019-03-13T08:13:49.509Z,24.50
2019-03-13T08:14:49.445Z,23.79
2019-03-13T08:15:49.439Z,19.89
2019-03-13T08:16:49.427Z,22.20
2019-03-13T08:17:49.419Z,23.89
2019-03-13T08:18:49.557Z,21.79
2019-03-13T08:19:49.401Z,20.00
2019-03-13T08:20:49.388Z,17.20
2019-03-13T08:21:49.375Z,17.39
2019-03-13T08:22:49.365Z,23.50
2019-03-13T08:23:49.353Z,19.10
2019-03-13T08:24:49.407Z,24.29
2019-03-13T08:25:49.330Z,15.69
2019-03-13T08:26:49.322Z,16.60
2019-03-13T08:27:49.314Z,17.89
2019-03-13T08:28:49.303Z,19.10
2019-03-13T08:29:49.291Z,17.89
2019-03-13T08:30:49.383Z,22.20
2019-03-13T08:31:49.270Z,17.39
2019-03-13T08:32:49.256Z,21.89
2019-03-13T08:33:49.245Z,22.00
2019-03-13T08:34:49.253Z,30.00
2019-03-13T08:35:49.227Z,20.39
2019-03-13T08:36:49.615Z,23.00
2019-03-13T08:37:49.209Z,17.00
2019-03-13T08:38:49.198Z,18.60
2019-03-13T08:39:49.180Z,17.79
2019-03-13T08:40:49.168Z,17.60
2019-03-13T08:41:49.257Z,18.00
2019-03-13T08:42:49.146Z,17.89
2019-03-13T08:43:49.139Z,16.50
2019-03-13T08:44:49.137Z,20.20
2019-03-13T08:45:49.121Z,14.80
2019-03-13T08:46:49.209Z,20.50
2019-03-13T08:47:49.096Z,16.39
2019-03-13T08:48:49.084Z,27.39
2019-03-13T08:49:49.077Z,22.10
2019-03-13T08:50:49.085Z,22.50
2019-03-13T08:51:49.404Z,22.70
2019-03-13T08:52:49.045Z,17.89
2019-03-13T08:53:49.035Z,17.10
2019-03-13T08:54:49.020Z,17.29
2019-03-13T08:55:49.014Z,16.79
2019-03-13T08:56:49.251Z,15.19
2019-03-13T08:57:48.993Z,19.10
2019-03-13T08:58:48.979Z,19.79
2019-03-13T08:59:48.969Z,19.50
2019-03-13T09:00:48.959Z,17.29
2019-03-13T09:01:48.945Z,20.20
2019-03-13T09:02:48.984Z,19.20
2019-03-13T09:03:48.930Z,22.39
2019-03-13T09:04:48.915Z,19.79
2019-03-13T09:05:48.905Z,19.10
2019-03-13T09:06:48.894Z,16.29
2019-03-13T09:07:48.882Z,19.50
2019-03-13T09:08:48.971Z,20.00
2019-03-13T09:09:48.862Z,19.00
2019-03-13T09:10:48.861Z,16.00
2019-03-13T09:11:48.838Z,15.39
2019-03-13T09:12:48.829Z,15.00
2019-03-13T09:13:48.871Z,19.20
2019-03-13T09:14:48.810Z,15.60
2019-03-13T09:15:48.799Z,18.50
2019-03-13T09:16:48.814Z,16.39
2019-03-13T09:17:48.775Z,17.10
2019-03-13T09:18:48.769Z,18.79
2019-03-13T09:19:48.808Z,18.00
2019-03-13T09:20:48.745Z,22.89
2019-03-13T09:21:48.737Z,19.50
2019-03-13T09:22:48.729Z,17.29
2019-03-13T09:23:48.716Z,19.60
2019-03-13T09:24:48.706Z,16.60
2019-03-13T09:25:48.796Z,17.39
2019-03-13T09:26:48.684Z,16.29
2019-03-13T09:27:48.675Z,17.89
2019-03-13T09:28:48.660Z,19.39
2019-03-13T09:29:48.651Z,17.89
2019-03-13T09:30:48.644Z,15.69
2019-03-13T09:31:48.879Z,22.60
2019-03-13T09:32:48.623Z,15.39
2019-03-13T09:33:48.609Z,18.89
2019-03-13T09:34:48.597Z,20.89
2019-03-13T09:35:48.589Z,22.70
2019-03-13T09:36:48.582Z,17.50
2019-03-13T09:37:48.667Z,25.29
2019-03-13T09:38:48.556Z,18.39
2019-03-13T09:39:48.551Z,22.89
2019-03-13T09:40:48.535Z,20.70
2019-03-13T09:41:48.523Z,19.29
2019-03-13T09:42:48.509Z,18.10
2019-03-13T09:43:48.556Z,13.89
2019-03-13T09:44:48.493Z,20.79
2019-03-13T09:45:48.480Z,15.10
2019-03-13T09:46:48.467Z,17.89
2019-03-13T09:47:48.460Z,19.10
2019-03-13T09:48:48.450Z,19.60
2019-03-13T09:49:48.640Z,20.79
2019-03-13T09:50:48.429Z,21.60
2019-03-13T09:51:48.418Z,15.50
2019-03-13T09:52:48.407Z,15.89
2019-03-13T09:53:48.398Z,15.50
2019-03-13T09:54:48.382Z,19.50
2019-03-13T09:55:48.430Z,15.89
2019-03-13T09:56:48.364Z,17.60
2019-03-13T09:57:48.354Z,17.39
2019-03-13T09:58:48.357Z,16.70
2019-03-13T09:59:48.333Z,13.69
2019-03-13T10:00:48.323Z,15.60
2019-03-13T10:01:48.415Z,16.70
2019-03-13T10:02:48.305Z,19.20
2019-03-13T10:03:48.294Z,15.39
2019-03-13T10:04:48.281Z,12.69
2019-03-13T10:05:48.271Z,17.50
2019-03-13T10:06:48.258Z,14.00
2019-03-13T10:07:48.397Z,17.79
2019-03-13T10:08:48.239Z,16.60
2019-03-13T10:09:48.228Z,16.20
2019-03-13T10:10:48.213Z,13.69
2019-03-13T10:11:48.209Z,13.19
2019-03-13T10:12:48.197Z,16.70
2019-03-13T10:13:48.287Z,17.10
2019-03-13T10:14:48.179Z,18.70
2019-03-13T10:15:48.165Z,16.60
2019-03-13T10:16:48.177Z,13.39
2019-03-13T10:17:48.143Z,20.39
2019-03-13T10:18:48.138Z,14.19
2019-03-13T10:19:48.175Z,16.39
2019-03-13T10:20:48.114Z,11.39
2019-03-13T10:21:48.101Z,14.00
2019-03-13T10:22:48.090Z,12.69
2019-03-13T10:23:48.082Z,7.80
2019-03-13T10:24:48.074Z,13.19
2019-03-13T10:25:49.363Z,10.60
2019-03-13T10:26:48.048Z,7.40
2019-03-13T10:27:48.039Z,12.30
2019-03-13T10:28:48.030Z,12.30
2019-03-13T10:29:48.023Z,10.30
2019-03-13T10:30:48.079Z,8.39
2019-03-13T10:31:48.000Z,14.30
2019-03-13T10:32:47.984Z,10.69
2019-03-13T10:33:47.977Z,13.10
2019-03-13T10:34:47.973Z,16.29
2019-03-13T10:35:47.958Z,14.89
2019-03-13T10:36:50.371Z,18.00
2019-03-13T10:37:47.935Z,23.60
2019-03-13T10:38:47.926Z,30.70
2019-03-13T10:39:47.914Z,25.39
2019-03-13T10:40:47.906Z,31.70
2019-03-13T10:41:48.047Z,35.79
2019-03-13T10:42:47.885Z,28.00
2019-03-13T10:43:47.874Z,37.29
2019-03-13T10:44:47.865Z,30.10
2019-03-13T10:45:47.850Z,29.29
2019-03-13T10:46:47.843Z,35.09
2019-03-13T10:47:47.881Z,25.89
2019-03-13T10:48:47.817Z,36.90
2019-03-13T10:49:47.815Z,19.20
2019-03-13T10:50:47.800Z,29.29
2019-03-13T10:51:47.790Z,17.70
2019-03-13T10:52:48.022Z,21.60
2019-03-13T10:53:47.766Z,23.39
2019-03-13T10:54:47.757Z,31.50
2019-03-13T10:55:47.746Z,27.39
2019-03-13T10:56:47.735Z,25.29
2019-03-13T10:57:47.722Z,28.20
2019-03-13T10:58:47.762Z,15.00
2019-03-13T10:59:47.705Z,19.60
2019-03-13T11:00:47.697Z,11.89
2019-03-13T11:01:47.678Z,15.50
2019-03-13T11:02:47.677Z,13.60
2019-03-13T11:03:48.011Z,12.39
2019-03-13T11:04:47.649Z,12.19
2019-03-13T11:05:47.645Z,16.70
2019-03-13T11:06:54.870Z,12.50
2019-03-13T11:08:12.427Z,23.20
2019-03-13T11:09:12.520Z,26.70
2019-03-13T11:10:12.412Z,27.70
2019-03-13T11:11:12.392Z,40.40
2019-03-13T11:12:12.388Z,41.70
2019-03-13T11:13:12.377Z,86.00
2019-03-13T11:14:15.809Z,89.30
2019-03-13T11:15:12.407Z,99.09
2019-03-13T11:16:12.341Z,49.50
2019-03-13T11:17:12.332Z,109.40
2019-03-13T11:18:12.325Z,105.30
2019-03-13T11:19:12.310Z,89.90
2019-03-13T11:20:12.300Z,69.59
2019-03-13T11:21:12.440Z,73.00
2019-03-13T11:22:12.277Z,76.30
2019-03-13T11:23:12.264Z,77.09
2019-03-13T11:24:12.255Z,64.50
2019-03-13T11:25:12.245Z,19.50
2019-03-13T11:26:12.334Z,12.60
2019-03-13T11:27:12.229Z,19.89
2019-03-13T11:28:12.211Z,9.10
2019-03-13T11:29:12.204Z,12.19
2019-03-13T11:30:12.196Z,16.39
2019-03-13T11:31:12.181Z,13.00
2019-03-13T11:32:12.267Z,13.39
2019-03-13T11:33:12.161Z,10.89
2019-03-13T11:34:12.147Z,13.80
2019-03-13T11:35:12.133Z,16.10
2019-03-13T11:36:12.121Z,15.19
2019-03-13T11:37:12.107Z,11.30
2019-03-13T11:38:12.153Z,9.50
2019-03-13T11:39:12.091Z,10.89
2019-03-13T11:40:12.079Z,12.80
2019-03-13T11:41:12.069Z,11.00
2019-03-13T11:42:12.057Z,9.50
2019-03-13T11:43:12.197Z,7.90
2019-03-13T11:44:12.036Z,8.89
2019-03-13T11:45:12.020Z,12.69
2019-03-13T11:46:12.013Z,10.10
2019-03-13T11:47:12.002Z,14.19
2019-03-13T11:48:11.991Z,9.80
2019-03-13T11:49:12.632Z,11.89
2019-03-13T11:50:11.978Z,12.89
2019-03-13T11:51:11.954Z,18.60
2019-03-13T11:52:11.947Z,10.50
2019-03-13T11:53:11.935Z,7.69
2019-03-13T11:54:11.923Z,8.00
2019-03-13T11:55:11.967Z,5.80
2019-03-13T11:56:11.906Z,10.69
2019-03-13T11:57:11.891Z,10.89
2019-03-13T11:58:11.881Z,7.69
2019-03-13T11:59:11.867Z,10.50
2019-03-13T12:00:11.858Z,8.50
2019-03-13T12:01:11.895Z,12.00
2019-03-13T12:02:11.833Z,9.19
2019-03-13T12:03:11.827Z,10.69
2019-03-13T12:04:11.820Z,9.80
2019-03-13T12:05:11.801Z,12.00
2019-03-13T12:06:11.799Z,11.50
2019-03-13T12:07:11.983Z,15.39
2019-03-13T12:08:11.767Z,15.19
2019-03-13T12:09:11.755Z,8.60
2019-03-13T12:10:11.745Z,10.50
2019-03-13T12:11:11.737Z,13.30
2019-03-13T12:12:11.728Z,11.19
2019-03-13T12:13:11.766Z,18.29
2019-03-13T12:14:11.706Z,11.80
2019-03-13T12:15:11.687Z,11.19
2019-03-13T12:16:11.684Z,13.10
2019-03-13T12:17:11.669Z,14.69
2019-03-13T12:18:11.658Z,17.10
2019-03-13T12:19:11.701Z,13.80
2019-03-13T12:20:11.637Z,11.30
2019-03-13T12:21:11.627Z,8.10
2019-03-13T12:22:11.617Z,12.80
2019-03-13T12:23:11.608Z,12.89
2019-03-13T12:24:11.594Z,12.19
2019-03-13T12:25:11.988Z,14.69
2019-03-13T12:26:11.573Z,10.30
2019-03-13T12:27:11.563Z,14.60
2019-03-13T12:28:11.549Z,21.50
2019-03-13T12:29:11.540Z,70.69
2019-03-13T12:30:11.534Z,61.20
2019-03-13T12:31:13.956Z,64.40
2019-03-13T12:32:11.509Z,31.89
2019-03-13T12:33:11.502Z,26.60
2019-03-13T12:34:11.484Z,33.20
2019-03-13T12:35:11.475Z,25.39
2019-03-13T12:36:11.467Z,27.89
2019-03-13T12:37:11.554Z,25.60
2019-03-13T12:38:11.441Z,40.40
2019-03-13T12:39:11.435Z,27.50
2019-03-13T12:40:11.422Z,33.20
2019-03-13T12:41:11.407Z,24.50
2019-03-13T12:42:11.398Z,36.50
2019-03-13T12:43:11.438Z,28.70
2019-03-13T12:44:11.384Z,33.90
2019-03-13T12:45:11.368Z,47.20
2019-03-13T12:46:11.360Z,80.50
2019-03-13T12:47:11.343Z,118.09
2019-03-13T12:48:16.524Z,138.10
2019-03-13T12:49:11.426Z,116.00
2019-03-13T12:50:11.309Z,98.09
2019-03-13T12:51:11.306Z,92.69
2019-03-13T12:52:11.289Z,94.09
2019-03-13T12:53:11.277Z,105.90